Time;durP1;ratioP1;P1;durP2;ratioP2;P2;SDS_P1;SDS_P2;PMS_P1;PMS_P2;Temp;Humidity;BMP_temperature;BMP_pressure;BME280_temperature;BME280_humidity;BME280_pressure;Samples;Min_cycle;Max_cycle;Signal;HPM_P1;HPM_P2
2022/01/03 00:01:40;;;;;;;;;;;11.70;99.90;;;12.10;53.69;98142.25;4995145;28;20307;-82
2022/01/03 00:04:08;;;;;;;;;;;11.70;99.90;;;12.12;53.29;98145.47;5029649;28;19928;-81
2022/01/03 00:06:34;;;;;;;;;;;11.80;99.90;;;12.12;53.54;98142.75;5028897;28;20322;-81
2022/01/03 00:09:00;;;;;;;;;;;11.80;99.90;;;12.11;53.34;98141.13;5016085;28;20277;-81
2022/01/03 00:11:26;;;;;;;;;;;11.80;99.90;;;12.05;52.89;98134.97;4998094;28;19964;-82
2022/01/03 00:13:52;;;;;;;;;;;11.80;99.90;;;12.00;53.54;98137.78;5015564;28;19928;-81
2022/01/03 00:16:18;;;;;;;;;;;11.70;99.90;;;11.99;53.46;98133.47;5022992;28;19939;-81
2022/01/03 00:18:44;;;;;;;;;;;11.70;99.90;;;11.97;53.60;98143.03;5013117;28;20027;-81
2022/01/03 00:21:14;;;;;;;;;;;11.70;99.90;;;11.98;53.59;98142.72;5009920;28;20427;-81
2022/01/03 00:23:40;;;;;;;;;;;11.70;99.90;;;11.98;53.83;98147.34;5012191;28;20287;-81
2022/01/03 00:26:07;;;;;;;;;;;11.70;99.90;;;12.02;53.91;98146.44;5011097;28;20094;-81
2022/01/03 00:28:39;;;;;;;;;;;11.70;99.90;;;12.06;53.89;98135.78;5025934;28;19920;-81
2022/01/03 00:31:05;;;;;;;;;;;11.70;99.90;;;12.09;53.25;98121.59;5030178;28;20379;-81
2022/01/03 00:33:31;;;;;;;;;;;11.80;99.90;;;12.05;53.15;98118.66;5023522;28;19925;-81
2022/01/03 00:35:59;;;;;;;;;;;11.80;99.90;;;12.08;53.71;98128.13;5011223;28;19925;-81
2022/01/03 00:38:29;;;;;;;;;;;11.70;99.90;;;11.95;53.97;98121.56;5031090;28;19921;-81
2022/01/03 00:40:55;;;;;;;;;;;11.70;99.90;;;11.85;53.80;98127.94;5027044;28;20289;-82
2022/01/03 00:43:21;;;;;;;;;;;11.60;99.90;;;11.81;54.32;98140.53;5010227;28;20027;-82
2022/01/03 00:45:50;;;;;;;;;;;11.60;99.90;;;11.79;53.98;98139.22;5014182;28;20714;-81
2022/01/03 00:48:16;;;;;;;;;;;11.50;99.90;;;11.77;54.37;98131.34;5008978;28;20015;-81
2022/01/03 00:50:42;;;;;;;;;;;11.50;99.90;;;11.68;54.22;98130.44;5026092;28;19979;-82
2022/01/03 00:53:08;;;;;;;;;;;11.50;99.90;;;11.67;54.90;98101.66;5014019;28;20429;-81
2022/01/03 00:55:34;;;;;;;;;;;11.50;99.90;;;11.70;54.57;98112.75;5013921;28;19999;-81
2022/01/03 00:58:07;;;;;;;;;;;11.40;99.90;;;11.69;55.00;98116.53;5013802;28;19928;-81
2022/01/03 01:00:40;;;;;;;;;;;11.40;99.90;;;11.64;55.18;98107.69;5030928;28;19921;-81
2022/01/03 01:03:10;;;;;;;;;;;11.40;99.90;;;11.64;55.40;98115.81;5015740;28;20346;-81
2022/01/03 01:05:41;;;;;;;;;;;11.40;99.90;;;11.65;55.05;98104.69;5028423;28;20352;-81
2022/01/03 01:08:07;;;;;;;;;;;11.40;99.90;;;11.65;54.74;98101.13;5023246;28;19920;-81
2022/01/03 01:10:34;;;;;;;;;;;11.40;99.90;;;11.68;54.80;98108.72;5012866;28;20001;-81
2022/01/03 01:13:00;;;;;;;;;;;11.30;99.90;;;11.67;55.25;98105.16;5012685;28;19924;-82
2022/01/03 01:15:26;;;;;;;;;;;11.40;99.90;;;11.75;55.22;98098.25;5012121;28;19931;-81
2022/01/03 01:17:53;;;;;;;;;;;11.40;99.90;;;11.77;55.37;98079.72;5021162;28;19921;-81
2022/01/03 01:20:20;;;;;;;;;;;11.50;99.90;;;11.80;55.12;98097.34;5011884;28;19924;-81
2022/01/03 01:22:47;;;;;;;;;;;11.50;99.90;;;11.74;55.05;98093.91;5025737;28;19929;-81
2022/01/03 01:27:53;;;;;;;;;;;11.50;99.90;;;11.70;55.24;98101.88;5026913;28;19935;-81
2022/01/03 01:30:21;;;;;;;;;;;11.50;99.90;;;11.70;55.18;98090.19;5002273;28;19933;-81
2022/01/03 01:33:01;;;;;;;;;;;11.50;99.90;;;11.69;55.34;98100.25;5011182;28;19933;-81
2022/01/03 01:35:53;;;;;;;;;;;11.50;99.90;;;11.69;55.35;98085.84;5006910;28;19947;-81
2022/01/03 01:38:27;;;;;;;;;;;11.40;99.90;;;11.67;55.10;98069.84;5044201;28;19936;-81
2022/01/03 01:40:54;;;;;;;;;;;11.50;99.90;;;11.73;55.48;98084.16;5009918;28;20521;-81
2022/01/03 01:43:32;;;;;;;;;;;11.50;99.90;;;11.72;54.98;98088.78;5028767;28;19932;-81
2022/01/03 01:45:59;;;;;;;;;;;11.50;99.90;;;11.67;55.36;98077.19;5046214;28;19925;-81
2022/01/03 01:48:24;;;;;;;;;;;11.40;99.90;;;11.65;55.54;98063.94;5008414;28;20358;-81
2022/01/03 01:50:51;;;;;;;;;;;11.40;99.90;;;11.68;54.81;98068.75;5010152;28;19924;-81
2022/01/03 01:53:21;;;;;;;;;;;11.40;99.90;;;11.63;55.21;98065.34;5013151;28;20109;-81
2022/01/03 01:55:48;;;;;;;;;;;11.30;99.90;;;11.58;55.18;98059.97;5019279;28;19925;-81
2022/01/03 01:58:23;;;;;;;;;;;11.30;99.90;;;11.61;55.22;98062.09;5012864;28;20002;-81
2022/01/03 02:00:55;;;;;;;;;;;11.30;99.90;;;11.63;55.17;98068.03;5038731;28;19959;-81
2022/01/03 02:03:21;;;;;;;;;;;11.40;99.90;;;11.58;54.68;98062.69;5026055;28;19928;-81
2022/01/03 02:06:22;;;;;;;;;;;11.30;99.90;;;11.60;55.20;98065.91;5038248;28;19925;-81
2022/01/03 02:09:04;;;;;;;;;;;11.40;99.90;;;11.58;55.18;98071.66;5027249;28;19988;-82
2022/01/03 02:11:49;;;;;;;;;;;11.30;99.90;;;11.60;55.56;98068.63;5016065;28;19928;-81
2022/01/03 02:14:16;;;;;;;;;;;11.40;99.90;;;11.64;55.25;98064.22;5027645;28;20023;-81
2022/01/03 02:16:43;;;;;;;;;;;11.40;99.90;;;11.70;55.25;98068.44;5016081;28;19952;-81
2022/01/03 02:19:09;;;;;;;;;;;11.40;99.90;;;11.72;55.35;98069.75;5010101;28;19929;-81
2022/01/03 02:21:36;;;;;;;;;;;11.40;99.90;;;11.73;54.89;98062.44;5010112;28;20054;-81
2022/01/03 02:24:03;;;;;;;;;;;11.50;99.90;;;11.72;55.25;98052.66;4994245;28;19921;-81
2022/01/03 02:26:29;;;;;;;;;;;11.40;99.90;;;11.70;55.20;98041.28;4996957;28;20474;-81
2022/01/03 02:28:55;;;;;;;;;;;11.40;99.90;;;11.73;54.83;98046.13;5013338;28;20307;-81
2022/01/03 02:31:22;;;;;;;;;;;11.50;99.90;;;11.68;55.00;98032.66;5023996;28;19931;-81
2022/01/03 02:33:48;;;;;;;;;;;11.40;99.90;;;11.68;54.75;98030.72;5005855;28;20333;-81
2022/01/03 02:36:15;;;;;;;;;;;11.50;99.90;;;11.67;55.22;98029.09;5005385;28;19925;-81
2022/01/03 02:38:41;;;;;;;;;;;11.40;99.90;;;11.63;55.25;98025.38;5007569;28;19928;-81
2022/01/03 02:41:07;;;;;;;;;;;11.40;99.90;;;11.64;54.64;98018.84;5026130;28;19920;-81
2022/01/03 02:43:33;;;;;;;;;;;11.40;99.90;;;11.57;55.25;98006.75;5009907;28;20410;-81
2022/01/03 02:45:59;;;;;;;;;;;11.30;99.90;;;11.50;55.11;98007.16;4992333;28;19935;-81
2022/01/03 02:48:26;;;;;;;;;;;11.30;99.90;;;11.44;55.00;98008.34;4990430;28;19924;-81
2022/01/03 02:50:52;;;;;;;;;;;11.20;99.90;;;11.34;55.49;98008.50;5008880;28;20347;-81
2022/01/03 02:53:19;;;;;;;;;;;11.10;99.90;;;11.28;55.77;98008.59;5010060;28;19967;-81
2022/01/03 02:55:45;;;;;;;;;;;11.00;99.90;;;11.18;55.48;98007.97;5024199;28;19928;-81
2022/01/03 02:58:11;;;;;;;;;;;11.00;99.90;;;11.17;55.95;98009.06;5040631;28;19925;-81
2022/01/03 03:00:44;;;;;;;;;;;10.90;99.90;;;11.07;56.39;98019.00;5003363;28;19927;-81
2022/01/03 03:03:12;;;;;;;;;;;10.80;99.90;;;10.95;56.60;98015.91;5010556;28;19964;-81
2022/01/03 03:05:38;;;;;;;;;;;10.80;99.90;;;10.82;56.78;98022.09;5026777;28;20423;-81
2022/01/03 03:08:04;;;;;;;;;;;10.60;99.90;;;10.73;57.48;98023.84;5010626;28;19931;-81
2022/01/03 03:10:29;;;;;;;;;;;10.60;99.90;;;10.74;57.62;98014.63;5026828;28;19928;-81
2022/01/03 03:12:56;;;;;;;;;;;10.50;99.90;;;10.71;57.16;98009.75;5012043;28;19964;-81
2022/01/03 03:15:22;;;;;;;;;;;10.50;99.90;;;10.70;58.03;98008.16;5007222;28;19928;-81
2022/01/03 03:17:48;;;;;;;;;;;10.40;99.90;;;10.62;57.54;98010.44;5022877;28;19931;-81
2022/01/03 03:20:22;;;;;;;;;;;10.40;99.90;;;10.56;58.07;97995.34;4998001;28;19921;-81
2022/01/03 03:22:49;;;;;;;;;;;10.30;99.90;;;10.60;57.82;97987.41;5032299;28;19929;-81
2022/01/03 03:25:16;;;;;;;;;;;10.30;99.90;;;10.68;57.86;97988.66;5010438;28;19924;-81
2022/01/03 03:27:44;;;;;;;;;;;10.40;99.90;;;10.68;57.61;97984.03;5028108;28;19931;-81
2022/01/03 03:30:12;;;;;;;;;;;10.40;99.90;;;10.73;58.03;97992.09;5010321;28;19925;-81
2022/01/03 03:32:38;;;;;;;;;;;10.50;99.90;;;10.80;57.48;97980.88;5029078;28;19998;-81
2022/01/03 03:35:04;;;;;;;;;;;10.50;99.90;;;10.91;57.88;97976.91;5028932;28;19924;-81
2022/01/03 03:37:30;;;;;;;;;;;10.50;99.90;;;11.01;57.25;97976.72;5014684;28;19971;-81
2022/01/03 03:39:56;;;;;;;;;;;10.70;99.90;;;11.13;57.37;97991.78;4996636;28;19991;-81
2022/01/03 03:42:22;;;;;;;;;;;10.80;99.90;;;11.22;57.23;97981.81;5010511;28;20422;-81
2022/01/03 03:44:48;;;;;;;;;;;10.80;99.90;;;11.30;56.48;97970.31;5028906;28;19925;-81
2022/01/03 03:47:14;;;;;;;;;;;11.00;99.90;;;11.41;56.28;97969.00;5026302;28;19931;-81
2022/01/03 03:49:39;;;;;;;;;;;11.10;99.90;;;11.46;55.80;97971.63;4999739;28;20654;-81
2022/01/03 03:52:05;;;;;;;;;;;11.10;99.90;;;11.51;55.85;97978.88;5028352;28;19928;-81
2022/01/03 03:54:32;;;;;;;;;;;11.20;99.90;;;11.60;55.58;97981.69;5013058;28;19921;-81
2022/01/03 03:56:58;;;;;;;;;;;11.20;99.90;;;11.66;55.17;97966.94;5011440;28;19931;-80
2022/01/03 03:59:24;;;;;;;;;;;11.30;99.90;;;11.66;55.04;97956.88;5014696;28;19924;-81
2022/01/03 04:01:50;;;;;;;;;;;11.30;99.90;;;11.69;55.70;97950.03;5013557;28;20427;-81
2022/01/03 04:04:16;;;;;;;;;;;11.40;99.90;;;11.69;55.04;97958.19;5045694;28;19946;-81
2022/01/03 04:06:42;;;;;;;;;;;11.40;99.90;;;11.73;54.85;97960.00;4997112;28;19925;-81
2022/01/03 04:09:08;;;;;;;;;;;11.40;99.90;;;11.77;54.78;97960.19;5013859;28;20446;-81
2022/01/03 04:11:34;;;;;;;;;;;11.40;99.90;;;11.78;54.94;97958.25;5027563;28;19921;-81
2022/01/03 04:14:00;;;;;;;;;;;11.50;99.90;;;11.78;55.08;97956.38;5011926;28;19931;-81
2022/01/03 04:16:26;;;;;;;;;;;11.50;99.90;;;11.76;54.92;97957.78;5025149;28;19939;-81
2022/01/03 04:18:52;;;;;;;;;;;11.60;99.90;;;11.81;54.93;97955.78;5009159;28;19939;-81
2022/01/03 04:21:18;;;;;;;;;;;11.50;99.90;;;11.79;54.20;97946.31;5012467;28;19929;-81
2022/01/03 04:23:44;;;;;;;;;;;11.50;99.90;;;11.73;54.77;97942.91;5027543;28;19925;-81
2022/01/03 04:26:11;;;;;;;;;;;11.50;99.90;;;11.71;55.03;97948.63;5026324;28;19931;-81
2022/01/03 04:28:38;;;;;;;;;;;11.50;99.90;;;11.71;55.13;97956.78;5027206;28;19924;-81
2022/01/03 04:31:04;;;;;;;;;;;11.50;99.90;;;11.78;54.67;97950.94;5030355;28;19964;-81
2022/01/03 04:33:30;;;;;;;;;;;11.50;99.90;;;11.79;54.46;97947.09;4996979;28;19925;-81
2022/01/03 04:35:56;;;;;;;;;;;11.50;99.90;;;11.78;54.92;97939.25;5010709;28;19947;-81
2022/01/03 04:38:22;;;;;;;;;;;11.60;99.90;;;11.78;54.90;97923.78;5014029;28;19986;-81
2022/01/03 04:40:47;;;;;;;;;;;11.60;99.90;;;11.79;54.52;97935.44;5012953;28;19920;-81
2022/01/03 04:43:14;;;;;;;;;;;11.60;99.90;;;11.82;54.68;97943.78;5023552;28;20372;-81
2022/01/03 04:45:40;;;;;;;;;;;11.50;99.90;;;11.82;55.02;97937.53;5023800;28;19998;-81
2022/01/03 04:48:05;;;;;;;;;;;11.60;99.90;;;11.82;54.26;97932.91;5024888;28;19920;-81
2022/01/03 04:50:31;;;;;;;;;;;11.50;99.90;;;11.85;54.38;97942.38;5027515;28;19928;-81
2022/01/03 04:52:57;;;;;;;;;;;11.60;99.90;;;11.88;54.69;97930.91;4995306;28;20008;-81
2022/01/03 04:55:23;;;;;;;;;;;11.60;99.90;;;11.90;54.31;97905.03;5026486;28;19925;-82
2022/01/03 04:57:50;;;;;;;;;;;11.60;99.90;;;11.97;54.05;97922.88;5025460;28;20311;-82
2022/01/03 05:00:16;;;;;;;;;;;11.70;99.90;;;12.01;54.25;97913.81;4992352;28;20376;-81
2022/01/03 05:02:42;;;;;;;;;;;11.80;99.90;;;12.06;54.10;97924.56;5024480;28;19925;-81
2022/01/03 05:05:08;;;;;;;;;;;11.80;99.90;;;12.10;53.70;97924.75;5013010;28;19925;-82
2022/01/03 05:07:34;;;;;;;;;;;11.80;99.90;;;12.13;53.71;97924.16;5013243;28;19930;-81
2022/01/03 05:10:00;;;;;;;;;;;11.80;99.90;;;12.05;53.90;97903.13;5007322;28;19920;-82
2022/01/03 05:12:26;;;;;;;;;;;11.80;99.90;;;12.09;53.78;97899.50;5010639;28;19930;-82
2022/01/03 05:14:52;;;;;;;;;;;11.90;99.90;;;12.13;53.85;97908.63;5025227;28;19943;-82
2022/01/03 05:17:18;;;;;;;;;;;11.90;99.90;;;12.11;53.82;97900.00;5021884;28;20380;-81
2022/01/03 05:19:43;;;;;;;;;;;11.90;99.90;;;12.13;54.04;97899.69;5009970;28;19932;-81
2022/01/03 05:22:10;;;;;;;;;;;11.80;99.90;;;12.16;53.77;97897.16;5015519;28;19921;-81
2022/01/03 05:24:37;;;;;;;;;;;11.90;99.90;;;12.18;53.72;97905.00;5028395;28;19921;-81
2022/01/03 05:27:03;;;;;;;;;;;11.90;99.90;;;12.22;53.49;97900.56;5009352;28;20379;-81
2022/01/03 05:29:29;;;;;;;;;;;11.90;99.90;;;12.19;54.31;97905.81;4996213;28;20122;-81
2022/01/03 05:31:55;;;;;;;;;;;11.90;99.90;;;12.18;55.12;97902.28;5006865;28;19925;-81
2022/01/03 05:34:21;;;;;;;;;;;12.00;99.90;;;12.15;55.74;97894.75;5010803;28;19927;-81
2022/01/03 05:36:47;;;;;;;;;;;12.00;99.90;;;12.09;56.14;97885.91;5041152;28;19963;-81
2022/01/03 05:39:13;;;;;;;;;;;12.00;99.90;;;12.00;56.83;97878.78;5012102;28;19929;-81
2022/01/03 05:41:39;;;;;;;;;;;11.90;99.90;;;11.98;56.58;97884.50;5024608;28;19929;-81
2022/01/03 05:44:05;;;;;;;;;;;11.90;99.90;;;11.97;57.38;97888.34;5027557;28;19971;-82
2022/01/03 05:46:31;;;;;;;;;;;11.80;99.90;;;11.87;57.32;97889.34;5010605;28;20007;-81
2022/01/03 05:48:56;;;;;;;;;;;11.80;99.90;;;11.83;58.02;97895.66;5035086;28;19924;-81
2022/01/03 05:51:22;;;;;;;;;;;11.70;99.90;;;11.83;58.26;97876.66;5026938;28;19967;-85
2022/01/03 05:53:48;;;;;;;;;;;11.70;99.90;;;11.87;58.58;97877.69;5028829;28;19935;-85
2022/01/03 05:56:14;;;;;;;;;;;11.70;99.90;;;11.82;58.91;97870.41;5006674;28;20296;-85
2022/01/03 05:58:40;;;;;;;;;;;11.70;99.90;;;11.73;59.84;97872.25;4994953;28;19924;-85
2022/01/03 06:01:06;;;;;;;;;;;11.60;99.90;;;11.66;60.03;97867.22;5000531;28;19930;-85
2022/01/03 06:03:36;;;;;;;;;;;11.60;99.90;;;11.63;60.41;97872.47;5010864;28;19928;-85
2022/01/03 06:08:28;;;;;;;;;;;11.50;99.90;;;11.52;60.82;97867.25;5008991;28;20019;-85
2022/01/03 06:10:54;;;;;;;;;;;11.40;99.90;;;11.47;61.65;97871.94;4995069;28;19924;-85
2022/01/03 06:13:20;;;;;;;;;;;11.30;99.90;;;11.43;61.97;97871.75;5008330;28;19942;-85
2022/01/03 06:15:46;;;;;;;;;;;11.30;99.90;;;11.36;62.14;97868.63;4998142;28;19928;-85
2022/01/03 06:18:13;;;;;;;;;;;11.30;99.90;;;11.37;61.74;97877.56;5025796;28;19928;-85
2022/01/03 06:20:40;;;;;;;;;;;11.20;99.90;;;11.36;61.46;97876.78;5042666;28;20055;-85
2022/01/03 06:23:06;;;;;;;;;;;11.20;99.90;;;11.35;61.88;97877.91;4992253;28;19971;-85
2022/01/03 06:25:32;;;;;;;;;;;11.20;99.90;;;11.34;61.95;97887.13;5007605;28;19925;-85
2022/01/03 06:27:58;;;;;;;;;;;11.20;99.90;;;11.27;62.33;97881.28;5027781;28;19952;-85
2022/01/03 06:30:24;;;;;;;;;;;11.20;99.90;;;11.19;62.37;97869.22;5020819;28;19927;-85
2022/01/03 06:32:50;;;;;;;;;;;11.10;99.90;;;11.15;63.04;97867.44;4994606;28;19925;-85
2022/01/03 06:35:16;;;;;;;;;;;11.20;99.90;;;11.17;62.48;97870.63;5026916;28;20012;-85
2022/01/03 06:37:41;;;;;;;;;;;11.00;99.90;;;11.13;62.20;97875.84;5012498;28;19927;-85
2022/01/03 06:40:08;;;;;;;;;;;11.00;99.90;;;11.23;62.32;97883.00;5010478;28;19924;-85
2022/01/03 06:42:34;;;;;;;;;;;11.00;99.90;;;11.23;61.79;97885.72;4997172;28;19987;-85
2022/01/03 06:45:00;;;;;;;;;;;11.00;99.90;;;11.26;62.11;97896.78;5025008;28;20368;-85
2022/01/03 06:47:26;;;;;;;;;;;11.00;99.90;;;11.26;62.99;97891.34;4995524;28;19971;-85
2022/01/03 06:49:52;;;;;;;;;;;11.00;99.90;;;11.25;62.54;97861.81;5029618;28;19925;-85
2022/01/03 06:52:18;;;;;;;;;;;11.10;99.90;;;11.28;63.11;97877.47;4995186;28;19925;-85
2022/01/03 06:54:43;;;;;;;;;;;11.00;99.90;;;11.29;62.80;97890.75;4998035;28;19925;-85
2022/01/03 06:57:09;;;;;;;;;;;11.10;99.90;;;11.32;63.29;97883.91;5018624;28;20012;-85
2022/01/03 06:59:35;;;;;;;;;;;11.20;99.90;;;11.35;63.21;97888.75;5030733;28;20015;-85
2022/01/03 07:02:01;;;;;;;;;;;11.10;99.90;;;11.28;63.43;97877.47;5015377;28;19925;-85
2022/01/03 07:04:27;;;;;;;;;;;11.10;99.90;;;11.29;63.33;97865.50;5014524;28;19956;-83
2022/01/03 07:06:53;;;;;;;;;;;11.10;99.90;;;11.36;63.34;97868.63;5017695;28;19935;-83
2022/01/03 07:09:19;;;;;;;;;;;11.10;99.90;;;11.26;63.29;97863.41;4998810;28;19921;-83
2022/01/03 07:11:45;;;;;;;;;;;11.10;99.90;;;11.26;63.45;97868.81;4996089;28;20011;-84
2022/01/03 07:19:34;;;;;;;;;;;11.20;99.90;;;11.33;62.71;97863.81;5022133;28;19966;-83
2022/01/03 07:22:02;;;;;;;;;;;11.20;99.90;;;11.40;62.68;97872.38;5030525;28;19920;-83
2022/01/03 07:24:29;;;;;;;;;;;11.20;99.90;;;11.52;62.24;97866.41;5003539;28;19928;-83
2022/01/03 07:26:56;;;;;;;;;;;11.30;99.90;;;11.48;61.84;97860.78;5018986;28;19921;-83
2022/01/03 07:29:22;;;;;;;;;;;11.40;99.90;;;11.50;61.99;97884.94;5013409;28;19971;-83
2022/01/03 07:31:47;;;;;;;;;;;11.30;99.90;;;11.49;63.07;97896.91;5000248;28;20300;-83
2022/01/03 07:34:13;;;;;;;;;;;11.30;99.90;;;11.52;62.82;97901.72;5025178;28;20289;-84
2022/01/03 07:36:39;;;;;;;;;;;11.30;99.90;;;11.46;62.94;97908.38;5028377;28;20011;-84
2022/01/03 07:39:05;;;;;;;;;;;11.30;99.90;;;11.45;62.64;97899.41;4995786;28;19929;-83
2022/01/03 07:41:31;;;;;;;;;;;11.30;99.90;;;11.49;61.83;97905.03;5012417;28;19935;-83
2022/01/03 07:43:57;;;;;;;;;;;11.30;99.90;;;11.50;61.81;97901.25;4997674;28;19925;-84
2022/01/03 07:46:23;;;;;;;;;;;11.40;99.90;;;11.55;62.09;97903.03;4998244;28;19925;-83
2022/01/03 07:48:49;;;;;;;;;;;11.40;99.90;;;11.55;62.47;97914.72;5013622;28;19921;-84
2022/01/03 07:51:15;;;;;;;;;;;11.40;99.90;;;11.61;61.58;97918.13;5015704;28;19925;-83
2022/01/03 07:53:42;;;;;;;;;;;11.40;99.90;;;11.60;61.63;97914.63;4995913;28;20360;-84
2022/01/03 07:56:09;;;;;;;;;;;11.40;99.90;;;11.65;61.17;97932.72;5015602;28;19925;-84
2022/01/03 07:58:39;;;;;;;;;;;11.50;99.90;;;11.74;60.57;97912.69;5028500;28;19929;-84
2022/01/03 08:01:05;;;;;;;;;;;11.50;99.90;;;11.82;60.26;97921.25;5029623;28;20354;-84
2022/01/03 08:03:31;;;;;;;;;;;11.60;99.90;;;11.92;60.13;97926.50;5011738;28;19924;-83
2022/01/03 08:05:57;;;;;;;;;;;11.70;99.90;;;12.03;60.04;97935.22;5012019;28;20015;-83
2022/01/03 08:08:23;;;;;;;;;;;11.80;99.90;;;12.08;59.15;97935.13;5008921;28;20039;-83
2022/01/03 08:10:49;;;;;;;;;;;11.90;99.90;;;12.17;59.33;97936.03;5012374;28;19929;-84
2022/01/03 08:13:15;;;;;;;;;;;12.00;99.90;;;12.19;58.16;97925.66;4997636;28;20368;-83
2022/01/03 08:15:41;;;;;;;;;;;12.10;99.90;;;12.29;58.24;97927.34;5024668;28;20573;-84
2022/01/03 08:18:07;;;;;;;;;;;12.10;99.90;;;12.34;57.73;97933.47;5007399;28;19972;-84
2022/01/03 08:20:34;;;;;;;;;;;12.10;99.90;;;12.34;56.70;97925.31;4997797;28;19978;-83
2022/01/03 08:23:00;;;;;;;;;;;12.30;99.90;;;12.32;57.03;97918.59;4990249;28;19925;-83
2022/01/03 08:25:26;;;;;;;;;;;12.20;99.90;;;12.36;56.97;97897.81;5026021;28;20514;-84
2022/01/03 08:27:52;;;;;;;;;;;12.20;99.90;;;12.43;56.64;97921.88;4993346;28;20475;-84
2022/01/03 08:30:18;;;;;;;;;;;12.30;99.90;;;12.44;56.17;97931.63;5027849;28;19932;-84
2022/01/03 08:32:44;;;;;;;;;;;12.30;99.90;;;12.52;55.77;97917.31;5012121;28;19932;-84
2022/01/03 08:35:10;;;;;;;;;;;12.30;99.90;;;12.48;56.20;97938.06;5041899;28;19925;-84
2022/01/03 08:37:36;;;;;;;;;;;12.30;99.90;;;12.39;56.28;97938.00;5008867;28;19932;-84
2022/01/03 08:40:04;;;;;;;;;;;12.30;99.90;;;12.38;56.15;97936.38;5011533;28;19924;-84
2022/01/03 08:42:30;;;;;;;;;;;12.20;99.90;;;12.42;56.31;97942.81;4997967;28;20376;-83
2022/01/03 08:44:56;;;;;;;;;;;12.20;99.90;;;12.50;55.96;97938.56;5009184;28;20019;-83
2022/01/03 08:47:22;;;;;;;;;;;12.20;99.90;;;12.54;55.59;97945.00;5024577;28;19929;-83
2022/01/03 08:49:48;;;;;;;;;;;12.20;99.90;;;12.48;55.77;97951.66;5009937;28;19965;-84
2022/01/03 08:52:15;;;;;;;;;;;12.20;99.90;;;12.54;54.96;97950.44;5026986;28;20604;-84
2022/01/03 08:54:41;;;;;;;;;;;12.30;99.90;;;12.59;54.81;97944.88;5011093;28;19952;-84
2022/01/03 08:57:08;;;;;;;;;;;12.30;99.90;;;12.73;54.39;97945.63;5026227;28;19925;-84
2022/01/03 08:59:34;;;;;;;;;;;12.50;99.90;;;12.88;54.06;97946.41;5011924;28;20347;-84
2022/01/03 09:02:00;;;;;;;;;;;12.60;99.90;;;12.96;53.99;97960.06;5025043;28;19924;-84
2022/01/03 09:04:26;;;;;;;;;;;12.70;99.90;;;12.85;53.24;97952.44;4995430;28;19925;-84
2022/01/03 09:06:52;;;;;;;;;;;12.70;99.90;;;12.77;53.42;97952.09;4995898;28;19924;-83
2022/01/03 09:09:19;;;;;;;;;;;12.60;99.90;;;12.75;53.58;97935.25;5012107;28;20011;-84
2022/01/03 09:11:45;;;;;;;;;;;12.60;99.90;;;12.89;53.53;97953.44;4992140;28;19978;-84
2022/01/03 09:14:11;;;;;;;;;;;12.70;99.90;;;13.04;52.83;97950.34;5010921;28;19929;-84
2022/01/03 09:16:37;;;;;;;;;;;12.80;99.90;;;13.10;52.34;97951.84;5008325;28;20311;-84
2022/01/03 09:19:04;;;;;;;;;;;12.90;99.90;;;13.21;52.29;97946.94;5024601;28;19956;-84
2022/01/03 09:21:30;;;;;;;;;;;13.00;99.90;;;13.29;51.63;97948.91;5015036;28;19925;-84
2022/01/03 09:24:18;;;;;;;;;;;13.20;99.90;;;13.38;51.66;97936.16;5011227;28;19925;-83
2022/01/03 09:29:27;;;;;;;;;;;13.30;99.90;;;13.63;51.32;97933.84;5016356;28;19925;-84
2022/01/03 09:31:53;;;;;;;;;;;13.50;99.90;;;13.87;50.88;97937.00;4991129;28;19924;-83
2022/01/03 09:34:22;;;;;;;;;;;13.60;99.90;;;14.05;50.52;97920.69;5007081;28;19928;-83
2022/01/03 09:36:48;;;;;;;;;;;13.80;99.90;;;14.20;50.76;97933.84;5023468;28;19986;-83
2022/01/03 09:39:14;;;;;;;;;;;14.00;99.90;;;14.20;50.17;97927.59;5009241;28;20384;-84
2022/01/03 09:41:44;;;;;;;;;;;14.10;99.90;;;14.15;50.05;97925.81;5008945;28;19925;-84
2022/01/03 09:44:13;;;;;;;;;;;14.00;99.90;;;14.02;50.27;97924.84;4988940;28;20350;-84
2022/01/03 09:46:41;;;;;;;;;;;14.00;99.90;;;13.90;50.57;97911.81;5036764;28;19929;-83
2022/01/03 09:49:08;;;;;;;;;;;13.90;99.90;;;13.99;50.22;97924.66;5011268;28;20123;-83
2022/01/03 09:51:34;;;;;;;;;;;13.90;99.90;;;14.13;49.85;97914.44;4991732;28;20312;-83
2022/01/03 09:54:08;;;;;;;;;;;14.00;99.90;;;14.22;49.54;97931.63;4993991;28;19960;-83
2022/01/03 09:56:35;;;;;;;;;;;14.10;99.90;;;14.05;50.32;97921.47;5012450;28;19925;-83
2022/01/03 09:59:02;;;;;;;;;;;14.10;99.90;;;13.91;50.30;97920.78;5011952;28;19921;-83
2022/01/03 10:01:29;;;;;;;;;;;14.00;99.90;;;13.81;50.90;97930.06;4996954;28;20368;-83
2022/01/03 10:03:55;;;;;;;;;;;13.90;99.90;;;13.74;50.92;97921.56;5025571;28;19932;-83
2022/01/03 10:06:21;;;;;;;;;;;13.80;99.90;;;13.64;51.15;97908.22;5028320;28;20011;-83
2022/01/03 10:08:47;;;;;;;;;;;13.60;99.90;;;13.66;51.32;97933.22;5013102;28;19947;-84
2022/01/03 10:11:13;;;;;;;;;;;13.50;99.90;;;13.76;50.98;97924.75;4996520;28;19931;-84
2022/01/03 10:13:40;;;;;;;;;;;13.60;99.90;;;13.66;51.23;97914.97;5010446;28;19960;-83
2022/01/03 10:16:06;;;;;;;;;;;13.60;99.90;;;13.57;51.00;97933.19;5011628;28;19921;-83
2022/01/03 10:18:33;;;;;;;;;;;13.50;99.90;;;13.63;50.60;97931.13;4995295;28;19942;-84
2022/01/03 10:21:02;;;;;;;;;;;13.40;99.90;;;13.76;50.22;97915.78;5012322;28;19928;-83
2022/01/03 10:23:30;;;;;;;;;;;13.60;99.90;;;13.89;49.94;97923.84;4988288;28;19925;-83
2022/01/03 10:26:15;;;;;;;;;;;13.80;99.90;;;14.01;50.03;97919.69;5009187;28;19995;-83
2022/01/03 10:28:42;;;;;;;;;;;13.90;99.90;;;14.14;49.87;97934.31;5013434;28;20391;-83
2022/01/03 10:31:18;;;;;;;;;;;14.10;99.90;;;14.00;49.41;97929.00;5012082;28;20074;-83
2022/01/03 10:33:45;;;;;;;;;;;14.10;99.90;;;14.08;50.33;97931.75;5015926;28;20011;-83
2022/01/03 10:36:30;;;;;;;;;;;14.10;99.90;;;14.06;49.65;97933.97;5024439;28;19956;-83
2022/01/03 10:38:58;;;;;;;;;;;14.10;99.90;;;13.97;50.03;97922.25;5027578;28;19925;-83
2022/01/03 10:41:25;;;;;;;;;;;14.10;99.90;;;13.97;50.35;97925.00;4995285;28;19924;-83
2022/01/03 10:43:53;;;;;;;;;;;14.00;99.90;;;14.06;50.13;97922.28;5028231;28;19924;-83
2022/01/03 10:46:19;;;;;;;;;;;14.10;99.90;;;14.16;50.29;97935.59;5034791;28;20390;-83
2022/01/03 10:48:45;;;;;;;;;;;14.20;99.90;;;14.29;50.06;97928.41;5027248;28;19928;-83
2022/01/03 10:51:11;;;;;;;;;;;14.30;99.90;;;14.32;50.43;97920.41;5026630;28;20407;-83
2022/01/03 10:53:39;;;;;;;;;;;14.40;99.90;;;14.33;50.15;97919.28;5010081;28;19932;-84
2022/01/03 10:56:28;;;;;;;;;;;14.40;99.90;;;14.29;49.94;97914.75;5012662;28;20372;-83
2022/01/03 10:59:02;;;;;;;;;;;14.40;99.90;;;14.29;49.81;97904.66;5015104;28;19925;-83
2022/01/03 11:01:29;;;;;;;;;;;14.40;99.90;;;14.36;49.31;97885.09;5029861;28;19979;-83
2022/01/03 11:03:57;;;;;;;;;;;14.40;99.90;;;14.41;48.99;97900.50;5023861;28;19931;-83
2022/01/03 11:11:58;;;;;;;;;;;14.20;99.90;;;13.93;49.73;97915.03;5022509;28;19928;-83
2022/01/03 11:14:38;;;;;;;;;;;14.00;99.90;;;13.74;49.94;97915.28;5024670;28;20047;-83
2022/01/03 11:17:29;;;;;;;;;;;13.90;99.90;;;13.82;50.39;97912.59;5018263;28;19925;-83
2022/01/03 11:19:58;;;;;;;;;;;13.80;99.90;;;14.00;49.75;97908.00;5003362;28;19980;-83
2022/01/03 11:22:44;;;;;;;;;;;13.90;99.90;;;13.89;49.26;97896.59;5006774;28;20004;-83
2022/01/03 11:25:10;;;;;;;;;;;14.00;99.90;;;13.93;49.76;97901.41;5023210;28;19929;-83
2022/01/03 11:27:38;;;;;;;;;;;14.00;99.90;;;14.08;50.35;97904.47;4991126;28;19928;-83
2022/01/03 11:30:06;;;;;;;;;;;14.00;99.90;;;14.25;50.00;97892.78;5005939;28;20024;-83
2022/01/03 11:32:34;;;;;;;;;;;14.10;99.90;;;14.41;48.43;97873.22;5004237;28;19921;-83
2022/01/03 11:35:00;;;;;;;;;;;14.30;99.90;;;14.54;47.56;97881.25;4995116;28;19924;-83
2022/01/03 11:37:30;;;;;;;;;;;14.50;99.70;;;14.63;47.21;97896.81;5010285;28;19961;-83